Time;durP1;ratioP1;P1;durP2;ratioP2;P2;SDS_P1;SDS_P2;PMS_P1;PMS_P2;Temp;Humidity;BMP_temperature;BMP_pressure;BME280_temperature;BME280_humidity;BME280_pressure;Samples;Min_cycle;Max_cycle;Signal;HPM_P1;HPM_P2
2021/04/14 00:02:11;;;;;;;8.57;7.23;;;;;;;4.95;63.54;96585.28;5031645;28;20233;-79
2021/04/14 00:04:37;;;;;;;11.17;7.60;;;;;;;4.98;63.37;96581.69;5029958;28;20198;-79
2021/04/14 00:07:04;;;;;;;8.57;7.30;;;;;;;4.98;62.92;96590.16;5029439;28;20280;-79
2021/04/14 00:09:30;;;;;;;7.27;6.57;;;;;;;5.01;62.81;96587.34;5043443;28;20631;-81
2021/04/14 00:11:57;;;;;;;7.20;6.50;;;;;;;4.98;62.30;96582.50;5036516;28;20232;-81
2021/04/14 00:14:26;;;;;;;6.93;6.23;;;;;;;4.96;62.28;96576.69;5049121;28;20244;-79
2021/04/14 00:16:52;;;;;;;6.67;5.97;;;;;;;4.97;61.96;96572.41;5049342;28;20359;-80
2021/04/14 00:19:18;;;;;;;7.20;6.50;;;;;;;4.94;61.45;96582.84;5047310;28;20574;-80
2021/04/14 00:21:44;;;;;;;7.27;6.40;;;;;;;4.91;61.60;96580.53;5032891;28;20708;-81
2021/04/14 00:24:11;;;;;;;6.33;5.60;;;;;;;4.84;61.55;96580.97;5038061;28;20229;-80
2021/04/14 00:26:37;;;;;;;6.10;5.50;;;;;;;4.80;61.29;96571.97;5040192;28;20225;-81
2021/04/14 00:29:04;;;;;;;5.87;5.23;;;;;;;4.72;61.21;96574.25;5053442;28;20651;-80
2021/04/14 00:31:40;;;;;;;7.30;5.97;;;;;;;4.70;61.30;96575.31;5046499;28;20194;-80
2021/04/14 00:34:09;;;;;;;7.57;5.10;;;;;;;4.68;61.16;96572.06;5032763;28;20607;-81
2021/04/14 00:36:36;;;;;;;6.50;5.37;;;;;;;4.67;61.27;96578.91;5038768;28;20226;-80
2021/04/14 00:39:04;;;;;;;6.40;5.43;;;;;;;4.68;61.08;96583.06;5052871;28;20228;-81
2021/04/14 00:41:30;;;;;;;5.90;5.30;;;;;;;4.67;60.70;96578.06;5051936;28;20271;-80
2021/04/14 00:43:57;;;;;;;5.50;4.90;;;;;;;4.65;60.63;96575.66;5049824;28;20217;-80
2021/04/14 00:46:24;;;;;;;6.73;5.07;;;;;;;4.64;60.50;96576.56;5051400;28;20239;-81
2021/04/14 00:48:53;;;;;;;8.83;5.30;;;;;;;4.60;60.80;96575.19;5049241;28;20582;-79
2021/04/14 00:51:21;;;;;;;5.57;5.07;;;;;;;4.56;60.82;96573.78;5045215;28;20224;-81
2021/04/14 00:53:47;;;;;;;5.30;4.67;;;;;;;4.52;60.76;96574.94;5052830;28;20316;-81
2021/04/14 00:56:13;;;;;;;8.63;5.03;;;;;;;4.50;60.85;96577.63;5040110;28;20755;-81
2021/04/14 00:58:39;;;;;;;7.77;4.97;;;;;;;4.53;60.84;96578.31;5032926;28;20206;-81
2021/04/14 01:01:05;;;;;;;5.43;4.67;;;;;;;4.53;61.22;96568.13;5042564;28;20247;-80
2021/04/14 01:03:35;;;;;;;5.23;4.73;;;;;;;4.56;61.09;96568.69;5046382;28;20291;-81
2021/04/14 01:06:05;;;;;;;6.67;4.80;;;;;;;4.58;60.62;96566.84;5032541;28;20318;-80
2021/04/14 01:08:31;;;;;;;5.03;4.43;;;;;;;4.56;60.87;96573.78;5033078;28;20228;-79
2021/04/14 01:10:57;;;;;;;4.70;4.27;;;;;;;4.54;60.53;96570.53;5032280;28;20579;-80
2021/04/14 01:13:23;;;;;;;4.93;4.40;;;;;;;4.50;60.82;96569.16;5032936;28;20222;-80
2021/04/14 01:15:50;;;;;;;4.40;4.00;;;;;;;4.47;61.07;96564.28;5032111;28;20695;-80
2021/04/14 01:18:19;;;;;;;5.33;4.83;;;;;;;4.39;61.25;96558.94;5048922;28;20225;-80
2021/04/14 01:20:47;;;;;;;6.23;4.37;;;;;;;4.37;61.62;96564.16;5045348;28;20218;-80
2021/04/14 01:23:14;;;;;;;5.27;4.70;;;;;;;4.36;61.84;96557.44;5047944;28;20594;-79
2021/04/14 01:25:42;;;;;;;5.13;4.63;;;;;;;4.34;61.84;96556.75;5047672;28;20191;-80
2021/04/14 01:28:11;;;;;;;5.13;4.27;;;;;;;4.33;61.81;96557.66;5032552;28;20234;-81
2021/04/14 01:30:38;;;;;;;4.87;4.47;;;;;;;4.36;62.01;96557.44;5036024;28;20732;-81
2021/04/14 01:33:04;;;;;;;4.83;4.43;;;;;;;4.39;61.79;96553.84;5037026;28;20261;-80
2021/04/14 01:35:30;;;;;;;6.10;4.73;;;;;;;4.39;62.18;96554.66;5045405;28;20224;-81
2021/04/14 01:37:56;;;;;;;5.33;4.63;;;;;;;4.44;62.10;96560.22;5050727;28;20229;-81
2021/04/14 01:40:25;;;;;;;4.33;3.93;;;;;;;4.45;61.88;96554.19;5039569;28;20221;-80
2021/04/14 01:42:52;;;;;;;5.10;4.53;;;;;;;4.46;61.57;96548.16;5043650;28;20241;-80
2021/04/14 01:45:22;;;;;;;5.80;4.20;;;;;;;4.48;62.07;96553.16;5033551;28;20230;-80
2021/04/14 01:47:49;;;;;;;4.30;3.90;;;;;;;4.49;62.08;96560.69;5042064;28;20225;-82
2021/04/14 01:50:15;;;;;;;5.00;4.50;;;;;;;4.45;62.04;96555.91;5031845;28;20226;-81
2021/04/14 01:52:41;;;;;;;4.77;4.37;;;;;;;4.44;62.20;96550.00;5042645;28;20733;-81
2021/04/14 01:55:08;;;;;;;5.13;4.63;;;;;;;4.38;62.13;96547.94;5051917;28;20312;-81
2021/04/14 01:57:36;;;;;;;4.73;4.00;;;;;;;4.41;62.02;96544.34;5042609;28;20237;-80
2021/04/14 02:00:09;;;;;;;4.73;4.23;;;;;;;4.36;62.35;96547.25;5031100;28;20238;-80
2021/04/14 02:02:34;;;;;;;6.53;5.13;;;;;;;4.36;62.79;96543.88;5039941;28;20229;-81
2021/04/14 02:05:00;;;;;;;5.87;4.40;;;;;;;4.37;62.43;96543.75;5051892;28;20210;-80
2021/04/14 02:07:26;;;;;;;5.90;4.53;;;;;;;4.35;62.51;96539.72;5044983;28;20202;-82
2021/04/14 02:09:52;;;;;;;6.17;5.33;;;;;;;4.37;62.28;96548.06;5031525;28;20230;-81
2021/04/14 02:12:18;;;;;;;5.17;4.70;;;;;;;4.35;62.43;96553.25;5040915;28;20229;-81
2021/04/14 02:14:45;;;;;;;5.03;4.63;;;;;;;4.33;62.92;96542.38;5052201;28;20225;-80
2021/04/14 02:17:11;;;;;;;5.77;4.60;;;;;;;4.36;62.67;96543.88;5036935;28;20279;-81
2021/04/14 02:19:37;;;;;;;5.37;4.77;;;;;;;4.34;62.75;96545.72;5031840;28;20194;-81
2021/04/14 02:22:04;;;;;;;5.70;4.83;;;;;;;4.30;63.00;96542.59;5040025;28;20633;-81
2021/04/14 02:24:29;;;;;;;5.83;5.30;;;;;;;4.25;63.49;96548.94;5031866;28;20235;-80
2021/04/14 02:26:55;;;;;;;7.10;4.83;;;;;;;4.21;63.56;96543.28;5050750;28;20708;-81
2021/04/14 02:29:21;;;;;;;5.83;5.10;;;;;;;4.21;63.49;96545.03;5050541;28;20959;-80
2021/04/14 02:31:50;;;;;;;5.50;5.00;;;;;;;4.23;63.69;96548.28;5031066;28;20240;-81
2021/04/14 02:34:16;;;;;;;5.47;4.97;;;;;;;4.22;63.77;96544.09;5051974;28;20197;-79
2021/04/14 02:36:43;;;;;;;5.37;4.70;;;;;;;4.21;63.80;96548.38;5045959;28;20285;-80
2021/04/14 02:39:10;;;;;;;8.53;5.17;;;;;;;4.12;63.94;96538.84;5051328;28;20221;-81
2021/04/14 02:41:37;;;;;;;6.20;5.30;;;;;;;4.10;64.08;96541.50;5050660;28;20229;-80
2021/04/14 02:44:03;;;;;;;5.60;5.10;;;;;;;4.10;64.53;96538.16;5041278;28;20568;-80
2021/04/14 02:46:29;;;;;;;6.07;5.40;;;;;;;4.08;64.41;96537.44;5051785;28;20204;-80
2021/04/14 02:48:56;;;;;;;5.50;5.00;;;;;;;4.06;64.27;96532.47;5045089;28;20214;-80
2021/04/14 02:51:23;;;;;;;5.60;5.00;;;;;;;4.09;64.47;96536.53;5030506;28;20284;-80
2021/04/14 02:53:49;;;;;;;5.63;5.13;;;;;;;4.08;64.52;96533.16;5046339;28;20233;-80
2021/04/14 02:56:15;;;;;;;6.20;5.30;;;;;;;4.14;64.38;96534.47;5051149;28;20268;-80
2021/04/14 02:58:41;;;;;;;6.40;5.80;;;;;;;4.14;64.94;96527.63;5036842;28;20198;-79
2021/04/14 03:01:07;;;;;;;6.67;5.03;;;;;;;4.16;64.80;96528.31;5030723;28;20300;-79
2021/04/14 03:03:33;;;;;;;6.43;5.43;;;;;;;4.19;64.54;96534.13;5043557;28;20232;-79
2021/04/14 03:06:00;;;;;;;8.83;4.87;;;;;;;4.14;64.76;96532.72;5050609;28;20229;-80
2021/04/14 03:08:26;;;;;;;5.67;5.17;;;;;;;4.16;64.31;96530.06;5038385;28;20229;-81
2021/04/14 03:10:52;;;;;;;5.70;5.20;;;;;;;4.18;64.46;96529.94;5031263;28;20217;-80
2021/04/14 03:13:18;;;;;;;7.33;5.27;;;;;;;4.16;64.36;96532.63;5032640;28;20244;-81
2021/04/14 03:15:44;;;;;;;5.37;4.87;;;;;;;4.15;64.45;96529.25;5031294;28;20234;-81
2021/04/14 03:18:13;;;;;;;5.90;5.30;;;;;;;4.18;64.65;96528.22;5049795;28;20236;-81
2021/04/14 03:20:40;;;;;;;6.80;5.10;;;;;;;4.15;64.49;96520.78;5051072;28;20728;-79
2021/04/14 03:23:07;;;;;;;8.43;5.10;;;;;;;4.18;64.42;96525.66;5033693;28;20218;-80
2021/04/14 03:25:33;;;;;;;8.40;5.80;;;;;;;4.19;64.41;96524.75;5032328;28;20198;-82
2021/04/14 03:28:00;;;;;;;5.87;5.27;;;;;;;4.17;64.57;96513.84;5035303;28;20247;-80
2021/04/14 03:30:27;;;;;;;5.40;4.90;;;;;;;4.20;64.27;96520.47;5050816;28;20229;-81
2021/04/14 03:32:53;;;;;;;5.37;4.80;;;;;;;4.25;64.16;96519.16;5047549;28;20229;-82
2021/04/14 03:35:23;;;;;;;6.93;5.33;;;;;;;4.30;63.76;96522.19;5033283;28;20229;-81
2021/04/14 03:37:49;;;;;;;5.57;5.07;;;;;;;4.32;63.78;96515.25;5049075;28;20593;-80
2021/04/14 03:40:17;;;;;;;6.07;5.47;;;;;;;4.31;64.18;96518.72;5031410;28;20309;-81
2021/04/14 03:42:43;;;;;;;5.80;5.20;;;;;;;4.27;64.20;96519.06;5031608;28;20241;-81
2021/04/14 03:45:15;;;;;;;6.83;5.03;;;;;;;4.25;64.15;96516.63;5031942;28;20229;-80
2021/04/14 03:47:42;;;;;;;6.00;5.40;;;;;;;4.28;64.12;96518.13;5029986;28;20221;-82
2021/04/14 03:50:11;;;;;;;6.43;5.67;;;;;;;4.25;64.36;96511.53;5036654;28;20221;-79
2021/04/14 03:52:37;;;;;;;5.70;5.20;;;;;;;4.25;64.31;96511.53;5042350;28;20210;-81
2021/04/14 03:55:04;;;;;;;6.17;5.20;;;;;;;4.22;64.54;96508.41;5030144;28;20229;-81
2021/04/14 03:57:31;;;;;;;6.20;5.60;;;;;;;4.19;64.29;96513.75;5047793;28;20229;-80
2021/04/14 03:59:57;;;;;;;5.80;5.27;;;;;;;4.18;64.29;96512.94;5050992;28;20278;-82
2021/04/14 04:02:23;;;;;;;7.30;5.60;;;;;;;4.20;64.23;96513.63;5038015;28;20244;-81
2021/04/14 04:04:49;;;;;;;6.87;5.23;;;;;;;4.23;64.22;96515.94;5049869;28;20209;-82
2021/04/14 04:07:15;;;;;;;5.90;5.30;;;;;;;4.21;64.26;96519.53;5045768;28;20848;-82
2021/04/14 04:09:41;;;;;;;7.60;5.83;;;;;;;4.18;63.97;96518.03;5042377;28;20248;-81
2021/04/14 04:12:09;;;;;;;6.07;5.47;;;;;;;4.15;64.35;96516.50;5042663;28;20707;-81
2021/04/14 04:14:46;;;;;;;7.23;5.87;;;;;;;4.10;64.73;96526.22;5054307;28;20225;-81
2021/04/14 04:17:12;;;;;;;6.10;5.60;;;;;;;4.13;64.46;96522.66;5054896;28;20252;-80
2021/04/14 04:19:38;;;;;;;6.80;6.17;;;;;;;4.12;64.35;96518.47;5046781;28;20264;-81
2021/04/14 04:22:04;;;;;;;7.10;6.23;;;;;;;4.07;64.53;96526.44;5042635;28;20228;-81
2021/04/14 04:24:30;;;;;;;10.27;5.93;;;;;;;4.04;64.85;96519.03;5055598;28;20240;-81
2021/04/14 04:26:56;;;;;;;5.80;5.27;;;;;;;4.04;64.90;96525.88;5043562;28;20471;-81
2021/04/14 04:29:22;;;;;;;8.90;5.73;;;;;;;4.05;64.89;96525.75;5034661;28;20226;-81
2021/04/14 04:31:49;;;;;;;7.53;5.80;;;;;;;4.07;65.29;96518.00;5044215;28;20198;-81
2021/04/14 04:34:15;;;;;;;6.43;5.83;;;;;;;4.07;65.00;96518.00;5054130;28;20217;-81
2021/04/14 04:36:41;;;;;;;6.40;5.30;;;;;;;4.03;65.17;96514.06;5051420;28;20271;-81
2021/04/14 04:39:07;;;;;;;6.50;5.90;;;;;;;4.02;64.99;96520.91;5034907;28;20229;-79
2021/04/14 04:41:34;;;;;;;6.43;5.83;;;;;;;4.02;64.98;96526.00;5049351;28;20225;-80
2021/04/14 04:44:00;;;;;;;6.43;5.83;;;;;;;4.01;65.16;96515.91;5045694;28;20214;-82
2021/04/14 04:46:26;;;;;;;6.57;5.93;;;;;;;4.00;64.78;96517.66;5045617;28;20196;-82
2021/04/14 04:48:54;;;;;;;6.80;5.87;;;;;;;4.05;65.12;96522.38;5045300;28;20229;-81
2021/04/14 04:51:20;;;;;;;6.53;5.83;;;;;;;4.06;64.98;96518.91;5036397;28;20222;-81
2021/04/14 04:53:47;;;;;;;6.97;5.97;;;;;;;4.10;64.69;96517.78;5044085;28;20278;-82
2021/04/14 04:56:15;;;;;;;9.70;6.37;;;;;;;4.09;64.93;96518.69;5037259;28;20225;-80
2021/04/14 04:58:43;;;;;;;6.77;6.07;;;;;;;4.10;64.77;96520.31;5048032;28;20194;-80
2021/04/14 05:01:10;;;;;;;7.90;6.37;;;;;;;4.12;64.41;96521.03;5048189;28;20226;-80
2021/04/14 05:03:36;;;;;;;7.93;6.50;;;;;;;4.20;64.23;96520.47;5033302;28;20505;-80
2021/04/14 05:06:03;;;;;;;7.03;5.87;;;;;;;4.25;64.29;96531.09;5036250;28;20226;-81
2021/04/14 05:08:29;;;;;;;7.23;6.30;;;;;;;4.26;63.92;96520.78;5045609;28;20226;-81
2021/04/14 05:10:57;;;;;;;7.13;6.40;;;;;;;4.23;64.08;96526.16;5042248;28;20278;-80
2021/04/14 05:13:31;;;;;;;24.13;18.80;;;;;;;4.21;64.79;96532.28;5053109;28;20578;-79
2021/04/14 05:15:57;;;;;;;13.47;10.90;;;;;;;4.21;64.88;96530.53;5036098;28;20226;-78
2021/04/14 05:18:23;;;;;;;9.00;7.60;;;;;;;4.26;65.18;96536.09;5052445;28;20294;-80
2021/04/14 05:20:49;;;;;;;10.97;6.67;;;;;;;4.30;65.63;96544.31;5051792;28;20225;-81
2021/04/14 05:23:17;;;;;;;8.47;6.27;;;;;;;4.26;65.29;96533.53;5048799;28;20276;-80
2021/04/14 05:25:45;;;;;;;9.00;6.67;;;;;;;4.27;65.74;96531.81;5033679;28;20194;-81
2021/04/14 05:28:14;;;;;;;7.00;6.30;;;;;;;4.26;64.89;96536.09;5033954;28;20222;-79
2021/04/14 05:30:43;;;;;;;8.57;6.60;;;;;;;4.28;64.80;96528.31;5033349;28;20938;-81
2021/04/14 05:33:10;;;;;;;8.20;6.67;;;;;;;4.27;65.18;96530.06;5044218;28;20825;-81
2021/04/14 05:35:37;;;;;;;10.77;6.80;;;;;;;4.25;65.44;96533.66;5037739;28;20230;-79
2021/04/14 05:38:05;;;;;;;10.80;7.00;;;;;;;4.29;65.21;96537.59;5050908;28;20201;-80
2021/04/14 05:40:36;;;;;;;7.37;6.60;;;;;;;4.30;64.62;96531.56;5033218;28;20280;-80
2021/04/14 05:43:11;;;;;;;11.13;6.70;;;;;;;4.26;65.49;96527.63;5042017;28;20233;-79
2021/04/14 05:45:37;;;;;;;13.03;10.90;;;;;;;4.26;65.26;96533.53;5047411;28;20224;-79
2021/04/14 05:48:04;;;;;;;22.43;16.93;;;;;;;4.30;64.54;96534.13;5038635;28;20250;-79
2021/04/14 05:50:30;;;;;;;16.70;9.40;;;;;;;4.36;63.67;96536.22;5053085;28;20218;-79
2021/04/14 05:52:57;;;;;;;7.80;7.00;;;;;;;4.40;63.15;96535.09;5041990;28;20257;-81
2021/04/14 05:55:23;;;;;;;9.67;7.07;;;;;;;4.40;63.24;96528.25;5052200;28;20210;-80
2021/04/14 05:57:52;;;;;;;10.40;7.43;;;;;;;4.51;62.87;96529.97;5044682;28;20228;-81
2021/04/14 06:00:19;;;;;;;10.83;7.40;;;;;;;4.49;63.15;96529.28;5043974;28;20232;-80
2021/04/14 06:02:46;;;;;;;6.33;5.73;;;;;;;4.88;71.28;96532.28;5034811;28;20226;-81
2021/04/14 06:05:14;;;;;;;8.50;6.23;;;;;;;5.22;65.05;96528.72;5033184;28;20234;-82
2021/04/14 06:07:41;;;;;;;7.07;5.50;;;;;;;5.49;66.18;96530.84;5034000;28;20194;-81
2021/04/14 06:10:23;;;;;;;7.23;6.07;;;;;;;5.81;64.92;96528.25;5042054;28;20619;-82
2021/04/14 06:12:51;;;;;;;7.30;6.50;;;;;;;6.10;62.44;96533.59;5036975;28;20651;-83
2021/04/14 06:15:21;;;;;;;9.30;6.90;;;;;;;6.05;58.28;96522.94;5033699;28;20237;-81
2021/04/14 06:17:47;;;;;;;10.80;6.90;;;;;;;5.91;58.58;96530.94;5033384;28;20217;-80
2021/04/14 06:20:16;;;;;;;10.17;7.13;;;;;;;5.83;58.25;96526.41;5052270;28;20308;-78
2021/04/14 06:22:42;;;;;;;12.00;7.17;;;;;;;5.76;58.18;96527.84;5035212;28;20608;-79
2021/04/14 06:25:13;;;;;;;9.33;6.80;;;;;;;5.79;58.42;96525.81;5031742;28;20226;-80
2021/04/14 06:27:48;;;;;;;23.13;16.57;;;;;;;5.79;57.45;96525.81;5042615;28;20232;-81
2021/04/14 06:30:16;;;;;;;21.10;17.43;;;;;;;5.81;57.30;96530.81;5032224;28;20233;-79
2021/04/14 06:32:42;;;;;;;16.47;12.63;;;;;;;5.81;56.46;96528.25;5043291;28;20240;-79
2021/04/14 06:35:09;;;;;;;9.70;7.07;;;;;;;5.80;56.37;96527.44;5032980;28;20246;-81
2021/04/14 06:37:35;;;;;;;7.00;5.40;;;;;;;5.79;56.21;96525.00;5048889;28;20248;-80
2021/04/14 06:40:18;;;;;;;6.97;5.77;;;;;;;5.87;55.82;96535.44;5031416;28;20308;-79
2021/04/14 06:42:53;;;;;;;5.10;4.37;;;;;;;5.92;55.94;96527.44;5031546;28;20234;-81
2021/04/14 06:45:23;;;;;;;7.10;5.03;;;;;;;5.97;54.79;96525.28;5034115;28;20225;-80
2021/04/14 06:48:07;;;;;;;5.33;4.80;;;;;;;5.86;55.71;96523.59;5045324;28;20225;-81
2021/04/14 06:50:39;;;;;;;8.97;4.23;;;;;;;5.73;54.50;96522.97;5041765;28;20221;-81
2021/04/14 06:53:27;;;;;;;6.00;4.70;;;;;;;5.92;55.40;96520.59;5036977;28;20218;-81
2021/04/14 06:55:58;;;;;;;5.13;4.33;;;;;;;6.09;55.65;96524.31;5034137;28;20226;-81
2021/04/14 06:58:34;;;;;;;5.53;4.23;;;;;;;6.22;54.89;96523.19;5033912;28;20213;-82
2021/04/14 07:01:04;;;;;;;8.90;4.67;;;;;;;6.32;55.17;96520.69;5040148;28;20262;-82
2021/04/14 07:03:39;;;;;;;8.63;4.77;;;;;;;6.58;55.31;96526.16;5048373;28;20823;-80
2021/04/14 07:06:08;;;;;;;4.50;3.97;;;;;;;6.72;54.65;96518.16;5042229;28;20333;-81
2021/04/14 07:08:38;;;;;;;5.77;4.73;;;;;;;6.45;53.45;96525.59;5042996;28;20309;-81
2021/04/14 07:11:05;;;;;;;4.67;4.00;;;;;;;6.69;53.86;96520.16;5036138;28;20198;-82
2021/04/14 07:13:34;;;;;;;6.27;4.00;;;;;;;6.90;54.07;96526.03;5032091;28;20217;-81
2021/04/14 07:19:20;;;;;;;4.30;3.90;;;;;;;7.03;53.22;96531.72;5038762;28;20209;-81
2021/04/14 07:21:52;;;;;;;5.63;3.93;;;;;;;7.26;52.46;96522.88;5031425;28;20206;-82
2021/04/14 07:24:26;;;;;;;5.27;3.77;;;;;;;7.48;52.24;96531.25;5031425;28;20206;-82
2021/04/14 07:26:58;;;;;;;6.20;3.63;;;;;;;7.59;50.94;96526.78;5032533;28;20182;-82
2021/04/14 07:29:33;;;;;;;5.27;3.70;;;;;;;7.54;50.79;96523.81;5036098;28;20194;-81
2021/04/14 07:32:14;;;;;;;8.70;4.30;;;;;;;7.57;50.22;96526.13;5042315;28;20202;-81
2021/04/14 07:34:50;;;;;;;5.97;4.10;;;;;;;7.73;49.81;96523.00;5031497;28;20221;-81
2021/04/14 07:37:35;;;;;;;4.90;3.40;;;;;;;8.04;50.54;96521.09;5034641;28;20244;-80
2021/04/14 07:40:22;;;;;;;4.90;3.80;;;;;;;8.01;48.25;96518.81;5031768;28;20208;-81
2021/04/14 07:42:59;;;;;;;5.33;3.80;;;;;;;7.80;48.12;96528.41;5042744;28;20264;-81
2021/04/14 07:45:28;;;;;;;7.23;5.73;;;;;;;7.49;48.95;96526.00;5031929;28;20337;-81
2021/04/14 07:47:59;;;;;;;8.63;5.70;;;;;;;7.30;49.53;96532.84;5042768;28;20198;-81
2021/04/14 07:50:31;;;;;;;6.37;4.30;;;;;;;7.55;49.55;96530.56;5041409;28;20198;-81
2021/04/14 07:52:57;;;;;;;7.77;4.50;;;;;;;8.14;50.32;96527.00;5046047;28;20304;-82
2021/04/14 07:55:30;;;;;;;5.03;3.97;;;;;;;8.68;49.39;96520.41;5032904;28;20292;-81
2021/04/14 07:58:06;;;;;;;6.10;4.03;;;;;;;9.06;47.84;96528.88;5040399;28;20213;-79
2021/04/14 08:00:36;;;;;;;7.67;3.83;;;;;;;9.21;47.31;96525.69;5043708;28;20197;-82
2021/04/14 08:03:17;;;;;;;4.70;3.80;;;;;;;9.21;47.94;96517.97;5040572;28;20271;-79
2021/04/14 08:05:43;;;;;;;5.67;3.70;;;;;;;8.90;47.00;96524.34;5032484;28;20243;-82
2021/04/14 08:08:24;;;;;;;4.90;3.57;;;;;;;8.29;45.68;96523.06;5031609;28;20198;-80
2021/04/14 08:10:56;;;;;;;4.13;3.07;;;;;;;7.65;46.84;96527.22;5031732;28;20238;-80
2021/04/14 08:13:28;;;;;;;4.87;3.40;;;;;;;7.47;48.14;96524.50;5041116;28;20217;-81
2021/04/14 08:15:55;;;;;;;5.70;3.90;;;;;;;8.06;48.26;96526.09;5031248;28;20230;-81
2021/04/14 08:18:26;;;;;;;5.50;3.10;;;;;;;8.78;46.46;96518.59;5030266;28;20205;-80
2021/04/14 08:21:12;;;;;;;3.63;3.20;;;;;;;9.17;44.76;96515.84;5030613;28;20810;-82
2021/04/14 08:23:39;;;;;;;6.10;3.47;;;;;;;9.10;43.41;96518.16;5032128;28;20664;-81
2021/04/14 08:26:16;;;;;;;5.83;3.40;;;;;;;8.62;45.99;96513.28;5032064;28;20204;-82
2021/04/14 08:28:45;;;;;;;5.43;3.70;;;;;;;8.04;46.59;96515.16;5031340;28;20213;-81
2021/04/14 08:31:18;;;;;;;4.50;3.00;;;;;;;7.62;46.22;96515.47;5030935;28;20202;-81
2021/04/14 08:33:45;;;;;;;3.70;2.60;;;;;;;7.61;46.98;96506.97;5031203;28;20225;-82
2021/04/14 08:36:20;;;;;;;3.77;3.03;;;;;;;7.73;47.31;96512.75;5041631;28;20263;-80
2021/04/14 08:38:47;;;;;;;4.83;3.07;;;;;;;7.80;48.02;96511.28;5051835;28;20197;-83
2021/04/14 08:41:26;;;;;;;3.23;1.93;;;;;;;8.03;55.76;96513.56;5041628;28;20210;-82
2021/04/14 08:43:54;;;;;;;4.90;2.53;;;;;;;8.30;56.12;96511.84;5038924;28;20339;-81
2021/04/14 08:46:27;;;;;;;3.27;2.60;;;;;;;8.55;55.36;96497.63;5043728;28;20223;-81
2021/04/14 08:49:02;;;;;;;7.50;3.90;;;;;;;8.42;48.61;96504.03;5047521;28;20292;-81
2021/04/14 08:51:32;;;;;;;43.47;33.53;;;;;;;8.30;48.11;96501.59;5051456;28;20200;-80
2021/04/14 08:53:59;;;;;;;14.83;12.43;;;;;;;8.24;48.29;96498.78;5040831;28;20253;-81
2021/04/14 08:56:26;;;;;;;4.63;3.60;;;;;;;7.91;45.97;96505.19;5034648;28;20218;-80
2021/04/14 08:58:54;;;;;;;4.20;3.50;;;;;;;7.80;47.52;96501.03;5034100;28;20206;-80
2021/04/14 09:01:21;;;;;;;3.83;2.97;;;;;;;7.80;48.31;96495.91;5042920;28;20202;-81
2021/04/14 09:03:48;;;;;;;4.30;2.73;;;;;;;7.87;48.53;96494.41;5043747;28;20229;-81
2021/04/14 09:06:18;;;;;;;4.53;2.83;;;;;;;7.77;47.71;96497.91;5046105;28;20471;-82
2021/04/14 09:08:47;;;;;;;4.03;2.83;;;;;;;7.82;48.15;96495.75;5035469;28;20209;-81
2021/04/14 09:11:19;;;;;;;3.53;2.87;;;;;;;7.87;47.28;96496.16;5044238;28;20229;-79
2021/04/14 09:13:54;;;;;;;3.10;2.80;;;;;;;7.87;47.28;96496.97;5042605;28;20681;-81
2021/04/14 09:16:30;;;;;;;4.50;2.70;;;;;;;7.90;46.37;96493.31;5044945;28;20270;-79
2021/04/14 09:19:07;;;;;;;4.37;3.27;;;;;;;7.87;46.93;96491.84;5053416;28;20220;-79
2021/04/14 09:21:45;;;;;;;3.00;2.30;;;;;;;7.70;46.67;96484.81;5054056;28;20224;-80
2021/04/14 09:24:22;;;;;;;3.20;2.40;;;;;;;7.59;46.87;96485.78;5046451;28;20206;-80
2021/04/14 09:26:57;;;;;;;2.30;2.10;;;;;;;7.65;46.94;96486.19;5034994;28;20190;-80
2021/04/14 09:29:27;;;;;;;4.07;2.40;;;;;;;7.76;47.41;96476.59;5034926;28;20227;-79
2021/04/14 09:31:56;;;;;;;4.03;2.60;;;;;;;7.87;46.93;96489.28;5048178;28;20228;-81
2021/04/14 09:34:33;;;;;;;3.27;2.30;;;;;;;7.95;45.89;96481.69;5054741;28;20286;-80
2021/04/14 09:37:04;;;;;;;3.40;2.10;;;;;;;7.87;46.07;96483.34;5053446;28;20221;-80
2021/04/14 09:39:34;;;;;;;113.07;78.83;;;;;;;7.57;44.36;96482.56;5050061;28;20197;-80
2021/04/14 09:42:00;;;;;;;5.00;3.17;;;;;;;7.49;45.63;96477.31;5052969;28;20194;-80
2021/04/14 09:44:38;;;;;;;6.43;4.27;;;;;;;7.49;45.49;96477.31;5050173;28;20205;-81
2021/04/14 09:47:18;;;;;;;4.70;2.87;;;;;;;7.41;44.89;96473.78;5046596;28;20200;-80
2021/04/14 09:49:46;;;;;;;3.83;2.47;;;;;;;7.27;44.85;96468.13;5048462;28;20267;-81
2021/04/14 09:52:25;;;;;;;3.33;2.13;;;;;;;7.16;44.53;96465.69;5039321;28;20577;-80
2021/04/14 09:54:55;;;;;;;2.33;2.13;;;;;;;7.13;44.58;96458.28;5052467;28;20215;-81
2021/04/14 09:57:29;;;;;;;3.43;2.40;;;;;;;7.45;45.30;96457.22;5039241;28;20222;-81
2021/04/14 10:00:01;;;;;;;2.50;2.10;;;;;;;7.82;43.52;96454.75;5035412;28;20202;-82
2021/04/14 10:02:32;;;;;;;3.03;2.50;;;;;;;8.59;43.11;96446.81;5051796;28;20229;-80
2021/04/14 10:05:01;;;;;;;3.93;2.50;;;;;;;9.04;42.53;96449.41;5045404;28;20208;-80
2021/04/14 10:07:31;;;;;;;3.03;2.20;;;;;;;9.40;41.56;96442.50;5040311;28;20259;-80
2021/04/14 10:10:07;;;;;;;4.37;2.30;;;;;;;9.60;39.84;96433.66;5044508;28;20226;-82
2021/04/14 10:12:37;;;;;;;4.80;2.70;;;;;;;9.66;39.56;96420.19;5042796;28;20221;-80
2021/04/14 10:15:06;;;;;;;4.67;2.60;;;;;;;10.12;39.04;96425.16;5037888;28;20264;-81
2021/04/14 10:17:34;;;;;;;2.67;2.47;;;;;;;10.38;37.85;96419.06;5044097;28;20256;-80
2021/04/14 10:20:13;;;;;;;4.67;2.30;;;;;;;10.63;36.78;96411.38;5036257;28;20340;-80
2021/04/14 10:22:43;;;;;;;2.67;2.10;;;;;;;10.65;37.97;96410.28;5036753;28;20248;-82
2021/04/14 10:25:18;;;;;;;3.47;2.47;;;;;;;10.38;38.67;96416.47;5042845;28;20206;-80
2021/04/14 10:27:49;;;;;;;3.03;2.33;;;;;;;9.91;38.67;96416.03;5051008;28;20200;-79
2021/04/14 10:30:21;;;;;;;2.53;2.00;;;;;;;9.55;40.28;96414.50;5045596;28;20197;-81
2021/04/14 10:32:48;;;;;;;4.70;3.90;;;;;;;9.33;41.02;96415.78;5035190;28;20209;-80
2021/04/14 10:35:20;;;;;;;32.97;26.10;;;;;;;9.25;40.90;96418.25;5050760;28;20251;-82
2021/04/14 10:37:49;;;;;;;7.63;6.20;;;;;;;9.16;39.65;96417.38;5035470;28;20217;-82
2021/04/14 10:40:19;;;;;;;3.17;2.60;;;;;;;9.00;40.83;96414.69;5034878;28;20202;-81
2021/04/14 10:42:47;;;;;;;2.30;1.77;;;;;;;8.91;40.27;96413.78;5048257;28;20217;-81
2021/04/14 10:45:15;;;;;;;3.97;2.23;;;;;;;8.71;39.42;96408.91;5036200;28;20265;-80
2021/04/14 10:47:43;;;;;;;3.13;2.07;;;;;;;8.66;40.72;96410.16;5033044;28;20244;-82
2021/04/14 10:50:16;;;;;;;2.60;1.87;;;;;;;8.63;40.92;96409.66;5045485;28;20194;-82
2021/04/14 10:52:45;;;;;;;3.30;2.17;;;;;;;8.49;40.93;96413.47;5035135;28;20217;-82
2021/04/14 10:55:22;;;;;;;26.83;20.83;;;;;;;8.49;41.35;96408.34;5038143;28;20213;-82
2021/04/14 10:57:58;;;;;;;6.70;4.00;;;;;;;8.25;39.86;96405.50;5044048;28;20810;-80
2021/04/14 11:00:30;;;;;;;3.33;1.90;;;;;;;8.08;40.20;96407.00;5041926;28;20197;-79
2021/04/14 11:03:00;;;;;;;2.93;1.73;;;;;;;8.08;39.98;96404.44;5048737;28;20237;-82
2021/04/14 11:05:29;;;;;;;2.80;1.90;;;;;;;8.14;39.97;96403.91;5052646;28;20197;-80
2021/04/14 11:08:00;;;;;;;2.20;1.60;;;;;;;8.19;38.31;96398.34;5048039;28;20198;-81
2021/04/14 11:10:32;;;;;;;1.90;1.60;;;;;;;8.19;37.75;96396.59;5029023;28;20958;-81
2021/04/14 11:12:58;;;;;;;2.67;1.60;;;;;;;8.13;38.08;96396.34;5037679;28;20225;-81
2021/04/14 11:15:32;;;;;;;2.37;1.70;;;;;;;8.01;38.29;96390.59;5034886;28;20190;-81
2021/04/14 11:18:09;;;;;;;2.27;1.73;;;;;;;8.03;38.55;96388.69;5050961;28;20233;-82
2021/04/14 11:20:43;;;;;;;2.37;1.60;;;;;;;8.18;39.42;96386.47;5051615;28;20209;-80
2021/04/14 11:23:19;;;;;;;3.13;2.30;;;;;;;8.21;36.95;96375.94;5036145;28;20256;-80
2021/04/14 11:25:45;;;;;;;5.37;3.60;;;;;;;7.98;35.98;96383.16;5035839;28;20669;-81
2021/04/14 11:28:14;;;;;;;4.73;4.20;;;;;;;8.16;37.76;96383.25;5051504;28;20250;-81
2021/04/14 11:30:53;;;;;;;3.87;2.33;;;;;;;8.28;37.69;96375.19;5032639;28;20834;-81
2021/04/14 11:33:21;;;;;;;3.30;1.70;;;;;;;8.40;38.50;96381.00;5042238;28;20299;-81
2021/04/14 11:35:52;;;;;;;2.20;1.50;;;;;;;8.44;35.96;96373.81;5052175;28;20255;-82
2021/04/14 11:38:29;;;;;;;4.13;1.60;;;;;;;8.15;35.63;96382.44;5052014;28;20228;-82
2021/04/14 11:40:57;;;;;;;2.23;1.70;;;;;;;7.92;36.49;96381.16;5036325;28;20216;-80
2021/04/14 11:43:33;;;;;;;2.33;1.60;;;;;;;8.08;36.65;96370.31;5030773;28;20226;-81
2021/04/14 11:46:03;;;;;;;2.53;1.77;;;;;;;8.16;36.11;96373.78;5046024;28;20200;-80
2021/04/14 11:48:36;;;;;;;3.20;1.80;;;;;;;8.24;37.72;96363.63;5035120;28;20198;-81
2021/04/14 11:51:14;;;;;;;1.70;1.60;;;;;;;8.45;38.05;96365.19;5045312;28;20208;-82
2021/04/14 11:53:54;;;;;;;2.53;1.90;;;;;;;8.56;37.51;96359.81;5044723;28;20244;-82
2021/04/14 11:56:34;;;;;;;4.40;2.00;;;;;;;8.67;36.78;96369.88;5034839;28;20209;-80